Time;durP1;ratioP1;P1;durP2;ratioP2;P2;SDS_P1;SDS_P2;PMS_P1;PMS_P2;Temp;Humidity;BMP_temperature;BMP_pressure;BME280_temperature;BME280_humidity;BME280_pressure;Samples;Min_cycle;Max_cycle;Signal;HPM_P1;HPM_P2
2023/04/22 00:01:11;;;;;;;4.40;3.80;;;;;14.70;100664.00;;;;5048654;28;20203;-76
2023/04/22 00:03:40;;;;;;;4.75;4.03;;;;;14.60;100671.00;;;;5068081;28;20198;-76
2023/04/22 00:06:08;;;;;;;5.30;4.50;;;;;14.60;100665.00;;;;5057960;28;20199;-76
2023/04/22 00:08:35;;;;;;;4.55;4.07;;;;;14.50;100665.00;;;;5057314;28;20288;-76
2023/04/22 00:11:04;;;;;;;4.57;4.13;;;;;14.50;100662.00;;;;5050491;28;20683;-76
2023/04/22 00:13:31;;;;;;;4.43;3.72;;;;;14.50;100663.00;;;;5068864;28;20199;-76
2023/04/22 00:15:59;;;;;;;5.35;4.13;;;;;14.40;100653.00;;;;5065615;28;20294;-76
2023/04/22 00:18:26;;;;;;;4.00;3.50;;;;;14.40;100658.00;;;;5051704;28;20290;-75
2023/04/22 00:20:53;;;;;;;4.90;3.95;;;;;14.40;100653.00;;;;5066574;28;20623;-75
2023/04/22 00:23:20;;;;;;;6.55;4.70;;;;;14.40;100645.00;;;;5058629;28;20199;-76
2023/04/22 00:25:48;;;;;;;6.13;4.60;;;;;14.30;100641.00;;;;5047570;28;20670;-76
2023/04/22 00:28:16;;;;;;;4.72;3.95;;;;;14.30;100654.00;;;;5057905;28;20191;-75
2023/04/22 00:30:44;;;;;;;4.45;3.63;;;;;14.30;100648.00;;;;5047542;28;20677;-76
2023/04/22 00:33:11;;;;;;;5.07;4.03;;;;;14.30;100649.00;;;;5056596;28;20235;-75
2023/04/22 00:35:38;;;;;;;4.45;3.97;;;;;14.20;100650.00;;;;5064194;28;20199;-75
2023/04/22 00:38:06;;;;;;;4.95;3.88;;;;;14.20;100655.00;;;;5064012;28;20199;-76
2023/04/22 00:40:33;;;;;;;4.78;3.85;;;;;14.20;100657.00;;;;5064178;28;20245;-76
2023/04/22 00:43:02;;;;;;;4.97;3.90;;;;;14.10;100654.00;;;;5052827;28;20206;-75
2023/04/22 00:45:31;;;;;;;4.85;4.25;;;;;14.10;100644.00;;;;5058656;28;20207;-75
2023/04/22 00:47:58;;;;;;;4.45;3.83;;;;;14.10;100655.00;;;;5057709;28;20214;-76
2023/04/22 00:50:26;;;;;;;5.85;4.60;;;;;14.10;100653.00;;;;5048823;28;20206;-75
2023/04/22 00:52:53;;;;;;;4.45;3.88;;;;;14.10;100653.00;;;;5049502;28;20214;-75
2023/04/22 00:55:21;;;;;;;4.53;3.85;;;;;14.00;100656.00;;;;5048623;28;20196;-75
2023/04/22 00:57:50;;;;;;;5.07;4.15;;;;;14.00;100652.00;;;;5052562;28;20199;-75
2023/04/22 01:00:19;;;;;;;5.68;4.13;;;;;14.00;100657.00;;;;5052923;28;20223;-75
2023/04/22 01:02:47;;;;;;;4.13;3.63;;;;;13.90;100662.00;;;;5055002;28;20212;-75
2023/04/22 01:05:15;;;;;;;3.95;3.40;;;;;13.90;100657.00;;;;5054927;28;20580;-75
2023/04/22 01:07:42;;;;;;;4.30;3.90;;;;;13.90;100661.00;;;;5055515;28;20206;-75
2023/04/22 01:10:10;;;;;;;3.97;3.28;;;;;13.90;100665.00;;;;5053564;28;20206;-75
2023/04/22 01:12:37;;;;;;;3.40;2.83;;;;;13.80;100669.00;;;;5052919;28;20195;-75
2023/04/22 01:15:06;;;;;;;4.88;3.55;;;;;13.80;100663.00;;;;5059826;28;20198;-75
2023/04/22 01:17:33;;;;;;;3.60;3.28;;;;;13.80;100664.00;;;;5069484;28;20664;-75
2023/04/22 01:20:04;;;;;;;4.20;3.25;;;;;13.70;100667.00;;;;5058360;28;20227;-75
2023/04/22 01:22:35;;;;;;;4.72;3.05;;;;;13.70;100672.00;;;;5059874;28;20206;-75
2023/04/22 01:25:05;;;;;;;4.03;3.42;;;;;13.70;100666.00;;;;5050640;28;20253;-75
2023/04/22 01:27:33;;;;;;;4.40;3.70;;;;;13.70;100664.00;;;;5056297;28;20286;-75
2023/04/22 01:30:00;;;;;;;4.30;3.42;;;;;13.60;100674.00;;;;5060817;28;20207;-75
2023/04/22 01:32:29;;;;;;;3.60;3.30;;;;;13.60;100666.00;;;;5050995;28;20235;-75
2023/04/22 01:34:56;;;;;;;3.80;3.42;;;;;13.60;100664.00;;;;5057229;28;20615;-75
2023/04/22 01:37:24;;;;;;;4.72;3.83;;;;;13.60;100662.00;;;;5059362;28;20210;-75
2023/04/22 01:39:51;;;;;;;4.82;4.05;;;;;13.60;100655.00;;;;5050666;28;21015;-75
2023/04/22 01:42:20;;;;;;;4.07;3.35;;;;;13.50;100649.00;;;;5050775;28;20187;-75
2023/04/22 01:44:47;;;;;;;3.97;3.58;;;;;13.50;100649.00;;;;5054324;28;20199;-75
2023/04/22 01:47:15;;;;;;;6.32;3.45;;;;;13.50;100645.00;;;;5059844;28;20200;-75
2023/04/22 01:49:42;;;;;;;4.25;3.42;;;;;13.50;100645.00;;;;5054623;28;20199;-76
2023/04/22 01:52:10;;;;;;;3.65;3.33;;;;;13.50;100649.00;;;;5050941;28;20199;-76
2023/04/22 01:54:37;;;;;;;4.53;3.60;;;;;13.40;100649.00;;;;5051757;28;20280;-75
2023/04/22 01:57:15;;;;;;;4.43;3.75;;;;;13.40;100654.00;;;;5062205;28;20203;-75
2023/04/22 01:59:43;;;;;;;4.90;3.45;;;;;13.40;100655.00;;;;5055259;28;20272;-75
2023/04/22 02:02:12;;;;;;;4.00;3.53;;;;;13.40;100658.00;;;;5052322;28;20211;-76
2023/04/22 02:04:39;;;;;;;4.75;3.75;;;;;13.40;100663.00;;;;5051271;28;20203;-75
2023/04/22 02:07:06;;;;;;;4.18;3.78;;;;;13.30;100655.00;;;;5053769;28;20556;-75
2023/04/22 02:09:34;;;;;;;3.67;3.03;;;;;13.30;100655.00;;;;5054292;28;20214;-75
2023/04/22 02:12:01;;;;;;;4.63;3.72;;;;;13.30;100655.00;;;;5065211;28;20639;-75
2023/04/22 02:14:28;;;;;;;5.25;3.90;;;;;13.30;100656.00;;;;5050405;28;20211;-75
2023/04/22 02:16:57;;;;;;;3.80;3.42;;;;;13.30;100655.00;;;;5055449;28;20583;-75
2023/04/22 02:19:25;;;;;;;5.88;4.10;;;;;13.30;100647.00;;;;5054954;28;20215;-75
2023/04/22 02:21:52;;;;;;;4.35;3.70;;;;;13.30;100647.00;;;;5054274;28;20568;-75
2023/04/22 02:24:19;;;;;;;4.68;3.65;;;;;13.30;100655.00;;;;5052460;28;20206;-75
2023/04/22 02:26:48;;;;;;;6.05;3.72;;;;;13.30;100644.00;;;;5057585;28;20544;-75
2023/04/22 02:29:16;;;;;;;4.25;3.75;;;;;13.30;100637.00;;;;5069153;28;20278;-75
2023/04/22 02:31:43;;;;;;;4.47;3.63;;;;;13.30;100640.00;;;;5050815;28;20249;-75
2023/04/22 02:34:12;;;;;;;4.60;3.65;;;;;13.30;100639.00;;;;5057968;28;20668;-75
2023/04/22 02:36:39;;;;;;;5.72;3.38;;;;;13.30;100639.00;;;;5051356;28;20203;-75
2023/04/22 02:39:06;;;;;;;5.53;4.28;;;;;13.30;100637.00;;;;5064555;28;20231;-76
2023/04/22 02:41:33;;;;;;;4.75;3.72;;;;;13.30;100636.00;;;;5070508;28;20237;-75
2023/04/22 02:44:01;;;;;;;4.53;3.65;;;;;13.30;100631.00;;;;5070232;28;20195;-76
2023/04/22 02:46:28;;;;;;;4.30;3.75;;;;;13.30;100630.00;;;;5064181;28;20203;-75
2023/04/22 02:48:55;;;;;;;5.25;4.28;;;;;13.30;100634.00;;;;5068761;28;20210;-75
2023/04/22 02:51:25;;;;;;;4.85;3.72;;;;;13.30;100628.00;;;;5057678;28;20195;-75
2023/04/22 02:53:53;;;;;;;3.97;3.58;;;;;13.30;100629.00;;;;5051781;28;20210;-75
2023/04/22 02:56:20;;;;;;;5.13;4.25;;;;;13.30;100633.00;;;;5049795;28;20565;-75
2023/04/22 02:58:48;;;;;;;4.57;3.90;;;;;13.40;100628.00;;;;5054550;28;20198;-74
2023/04/22 03:01:15;;;;;;;8.88;3.92;;;;;13.40;100627.00;;;;5055600;28;20230;-75
2023/04/22 03:03:42;;;;;;;4.22;3.63;;;;;13.40;100623.00;;;;5069782;28;20202;-76
2023/04/22 03:06:10;;;;;;;4.25;3.72;;;;;13.40;100615.00;;;;5048618;28;20196;-75
2023/04/22 03:08:38;;;;;;;3.90;3.38;;;;;13.40;100613.00;;;;5052966;28;20198;-75
2023/04/22 03:11:06;;;;;;;5.95;3.80;;;;;13.40;100611.00;;;;5048533;28;20203;-75
2023/04/22 03:13:33;;;;;;;4.95;3.90;;;;;13.40;100612.00;;;;5056740;28;20579;-75
2023/04/22 03:16:00;;;;;;;4.38;3.67;;;;;13.40;100610.00;;;;5058963;28;20206;-75
2023/04/22 03:18:27;;;;;;;3.85;3.45;;;;;13.40;100611.00;;;;5050839;28;20222;-75
2023/04/22 03:20:55;;;;;;;4.82;4.03;;;;;13.50;100610.00;;;;5058313;28;20242;-75
2023/04/22 03:23:22;;;;;;;4.15;3.72;;;;;13.50;100612.00;;;;5048994;28;20208;-75
2023/04/22 03:25:51;;;;;;;4.28;3.47;;;;;13.50;100609.00;;;;5049107;28;20195;-75
2023/04/22 03:28:18;;;;;;;4.95;4.03;;;;;13.50;100614.00;;;;5058515;28;20210;-76
2023/04/22 03:30:46;;;;;;;5.55;4.30;;;;;13.50;100609.00;;;;5063801;28;20202;-76
2023/04/22 03:33:13;;;;;;;4.53;3.72;;;;;13.50;100610.00;;;;5068825;28;20314;-75
2023/04/22 03:35:40;;;;;;;4.03;3.47;;;;;13.50;100599.00;;;;5065001;28;20205;-75
2023/04/22 03:38:07;;;;;;;5.25;4.22;;;;;13.60;100599.00;;;;5060685;28;20198;-76
2023/04/22 03:40:35;;;;;;;4.13;3.63;;;;;13.60;100590.00;;;;5062714;28;20223;-76
2023/04/22 03:43:04;;;;;;;3.65;3.22;;;;;13.60;100588.00;;;;5052021;28;20195;-75
2023/04/22 03:45:31;;;;;;;3.65;3.30;;;;;13.60;100595.00;;;;5050049;28;20196;-76
2023/04/22 03:47:58;;;;;;;5.22;3.80;;;;;13.60;100597.00;;;;5049878;28;20194;-75
2023/04/22 03:50:26;;;;;;;4.20;3.80;;;;;13.60;100590.00;;;;5049710;28;20203;-76
2023/04/22 03:52:53;;;;;;;4.63;3.55;;;;;13.60;100581.00;;;;5058853;28;20213;-76
2023/04/22 03:55:20;;;;;;;5.35;4.22;;;;;13.60;100586.00;;;;5069057;28;20195;-76
2023/04/22 03:57:48;;;;;;;4.68;3.88;;;;;13.70;100581.00;;;;5056256;28;20207;-76
2023/04/22 04:00:17;;;;;;;4.97;4.13;;;;;13.60;100583.00;;;;5056818;28;20239;-76
2023/04/22 04:02:44;;;;;;;6.35;3.50;;;;;13.70;100580.00;;;;5049557;28;20214;-76
2023/04/22 04:05:12;;;;;;;4.40;3.85;;;;;13.70;100575.00;;;;5052109;28;20290;-76
2023/04/22 04:07:40;;;;;;;4.00;3.60;;;;;13.70;100568.00;;;;5050736;28;20233;-76
2023/04/22 04:10:09;;;;;;;4.95;4.07;;;;;13.70;100565.00;;;;5048224;28;20286;-76
2023/04/22 04:12:36;;;;;;;6.75;4.35;;;;;13.70;100565.00;;;;5048702;28;20199;-76
2023/04/22 04:15:03;;;;;;;4.28;3.88;;;;;13.70;100565.00;;;;5054533;28;20206;-76
2023/04/22 04:17:32;;;;;;;6.22;3.53;;;;;13.70;100562.00;;;;5063961;28;20546;-75
2023/04/22 04:19:59;;;;;;;4.20;3.80;;;;;13.80;100562.00;;;;5052186;28;20219;-76
2023/04/22 04:22:28;;;;;;;3.92;3.53;;;;;13.80;100559.00;;;;5048246;28;20207;-76
2023/04/22 04:24:55;;;;;;;5.05;4.03;;;;;13.80;100550.00;;;;5048330;28;20199;-76
2023/04/22 04:27:23;;;;;;;4.38;3.70;;;;;13.80;100550.00;;;;5065960;28;20199;-75
2023/04/22 04:29:51;;;;;;;4.28;3.53;;;;;13.80;100552.00;;;;5054535;28;20239;-76
2023/04/22 04:32:18;;;;;;;4.10;3.47;;;;;13.80;100555.00;;;;5061843;28;20231;-75
2023/04/22 04:34:47;;;;;;;4.35;3.88;;;;;13.80;100552.00;;;;5056780;28;20290;-76
2023/04/22 04:37:15;;;;;;;4.53;3.85;;;;;13.80;100556.00;;;;5050976;28;20195;-76
2023/04/22 04:39:43;;;;;;;4.55;4.13;;;;;13.80;100548.00;;;;5060005;28;20199;-75
2023/04/22 04:42:11;;;;;;;4.57;3.80;;;;;13.80;100551.00;;;;5062355;28;20219;-76
2023/04/22 04:44:38;;;;;;;4.50;3.83;;;;;13.80;100540.00;;;;5048486;28;20203;-76
2023/04/22 04:47:05;;;;;;;4.30;3.90;;;;;13.90;100536.00;;;;5046914;28;20211;-76
2023/04/22 04:49:38;;;;;;;4.90;3.92;;;;;13.90;100538.00;;;;5058275;28;20277;-76
2023/04/22 04:52:09;;;;;;;5.22;4.22;;;;;13.90;100528.00;;;;5053898;28;20192;-77
2023/04/22 04:54:36;;;;;;;4.18;3.70;;;;;13.90;100534.00;;;;5048904;28;20794;-76
2023/04/22 04:57:04;;;;;;;5.60;3.53;;;;;13.90;100527.00;;;;5047985;28;20657;-76
2023/04/22 04:59:32;;;;;;;6.05;3.95;;;;;13.90;100533.00;;;;5059273;28;20199;-76
2023/04/22 05:01:59;;;;;;;4.45;3.97;;;;;13.90;100529.00;;;;5052808;28;20215;-76
2023/04/22 05:04:26;;;;;;;5.80;4.45;;;;;14.00;100529.00;;;;5057570;28;20203;-76
2023/04/22 05:06:54;;;;;;;4.80;3.83;;;;;14.00;100534.00;;;;5055555;28;20200;-76
2023/04/22 05:09:22;;;;;;;4.38;3.97;;;;;14.00;100531.00;;;;5061136;28;20248;-76
2023/04/22 05:11:50;;;;;;;6.72;4.20;;;;;14.00;100535.00;;;;5054733;28;20204;-76
2023/04/22 05:14:17;;;;;;;5.45;4.57;;;;;14.00;100535.00;;;;5047349;28;20203;-76
2023/04/22 05:16:44;;;;;;;5.68;5.07;;;;;14.10;100541.00;;;;5047846;28;20195;-76
2023/04/22 05:19:12;;;;;;;5.53;4.55;;;;;14.10;100542.00;;;;5047756;28;20257;-76
2023/04/22 05:21:40;;;;;;;6.15;5.35;;;;;14.10;100541.00;;;;5047726;28;20227;-77
2023/04/22 05:24:08;;;;;;;7.05;5.97;;;;;14.20;100553.00;;;;5049242;28;20216;-76
2023/04/22 05:26:38;;;;;;;8.65;5.30;;;;;14.20;100549.00;;;;5056723;28;20713;-77
2023/04/22 05:29:08;;;;;;;6.50;5.60;;;;;14.20;100547.00;;;;5051770;28;20203;-77
2023/04/22 05:31:35;;;;;;;6.97;5.53;;;;;14.30;100550.00;;;;5063236;28;20199;-78
2023/04/22 05:34:04;;;;;;;9.75;5.97;;;;;14.30;100551.00;;;;5047428;28;20196;-77
2023/04/22 05:36:31;;;;;;;7.55;6.18;;;;;14.30;100555.00;;;;5056702;28;20286;-77
2023/04/22 05:39:00;;;;;;;7.03;6.32;;;;;14.40;100555.00;;;;5067721;28;20203;-76
2023/04/22 05:41:28;;;;;;;8.95;7.13;;;;;14.40;100550.00;;;;5063580;28;20223;-76
2023/04/22 05:43:57;;;;;;;10.35;8.07;;;;;14.40;100546.00;;;;5056026;28;20204;-77
2023/04/22 05:46:25;;;;;;;9.90;7.75;;;;;14.50;100549.00;;;;5059705;28;20202;-77
2023/04/22 05:48:54;;;;;;;8.73;7.72;;;;;14.60;100553.00;;;;5050058;28;20307;-76
2023/04/22 05:51:23;;;;;;;11.38;7.95;;;;;14.60;100550.00;;;;5051017;28;20955;-76
2023/04/22 05:53:52;;;;;;;10.60;8.02;;;;;14.70;100552.00;;;;5056926;28;20627;-78
2023/04/22 05:56:22;;;;;;;9.77;7.97;;;;;14.70;100546.00;;;;5063789;28;20191;-76
2023/04/22 05:58:49;;;;;;;10.32;8.55;;;;;14.80;100550.00;;;;5067159;28;20256;-76
2023/04/22 06:01:18;;;;;;;10.45;8.68;;;;;14.80;100553.00;;;;5068160;28;20212;-76
2023/04/22 06:03:46;;;;;;;9.32;8.00;;;;;14.90;100558.00;;;;5061675;28;20210;-77
2023/04/22 06:06:13;;;;;;;12.57;9.45;;;;;15.00;100556.00;;;;5057993;28;20227;-77
2023/04/22 06:08:41;;;;;;;11.35;9.40;;;;;15.00;100546.00;;;;5052518;28;20554;-78
2023/04/22 06:11:08;;;;;;;12.43;9.27;;;;;15.10;100541.00;;;;5050761;28;20199;-76
2023/04/22 06:13:35;;;;;;;12.75;10.25;;;;;15.20;100548.00;;;;5051203;28;20202;-78
2023/04/22 06:16:03;;;;;;;12.10;9.68;;;;;15.20;100540.00;;;;5051744;28;20196;-76
2023/04/22 06:18:35;;;;;;;12.77;9.73;;;;;15.30;100540.00;;;;5051081;28;20226;-77
2023/04/22 06:21:03;;;;;;;12.25;10.02;;;;;15.40;100539.00;;;;5051031;28;20765;-77
2023/04/22 06:23:30;;;;;;;12.80;10.45;;;;;15.40;100532.00;;;;5050676;28;20360;-77
2023/04/22 06:25:58;;;;;;;12.82;9.75;;;;;15.50;100538.00;;;;5064320;28;20214;-76
2023/04/22 06:28:25;;;;;;;11.98;9.80;;;;;15.60;100532.00;;;;5062681;28;20287;-77
2023/04/22 06:30:53;;;;;;;12.48;9.77;;;;;15.70;100536.00;;;;5050982;28;20195;-77
2023/04/22 06:33:20;;;;;;;13.45;9.82;;;;;15.80;100524.00;;;;5050407;28;20709;-77
2023/04/22 06:35:49;;;;;;;11.85;9.80;;;;;15.80;100523.00;;;;5062156;28;20188;-77
2023/04/22 06:38:18;;;;;;;13.52;10.57;;;;;15.90;100523.00;;;;5066945;28;20290;-77
2023/04/22 06:40:46;;;;;;;11.55;9.27;;;;;16.00;100512.00;;;;5071152;28;20190;-77
2023/04/22 06:43:20;;;;;;;12.98;9.90;;;;;16.10;100514.00;;;;5070627;28;20581;-77
2023/04/22 06:45:47;;;;;;;12.20;9.80;;;;;16.20;100513.00;;;;5066883;28;20199;-78
2023/04/22 06:48:15;;;;;;;12.43;10.50;;;;;16.20;100517.00;;;;5049906;28;20658;-78
2023/04/22 06:50:42;;;;;;;10.88;9.77;;;;;16.30;100515.00;;;;5052215;28;20302;-78
2023/04/22 06:53:11;;;;;;;13.32;10.95;;;;;16.40;100515.00;;;;5050565;28;20195;-77
2023/04/22 06:55:39;;;;;;;11.40;10.02;;;;;16.50;100507.00;;;;5059923;28;20285;-78
2023/04/22 06:58:06;;;;;;;14.63;9.05;;;;;16.60;100512.00;;;;5067935;28;20623;-76
2023/04/22 07:00:33;;;;;;;12.05;10.27;;;;;16.70;100521.00;;;;5063076;28;20195;-77
2023/04/22 07:03:01;;;;;;;10.85;9.18;;;;;16.80;100504.00;;;;5050344;28;20219;-77
2023/04/22 07:05:31;;;;;;;10.98;9.07;;;;;16.80;100504.00;;;;5056636;28;20203;-77
2023/04/22 07:08:01;;;;;;;13.30;8.95;;;;;16.90;100502.00;;;;5048711;28;20200;-78
2023/04/22 07:10:32;;;;;;;10.90;9.35;;;;;17.00;100501.00;;;;5052636;28;20233;-76
2023/04/22 07:12:59;;;;;;;9.40;8.00;;;;;17.10;100501.00;;;;5049489;28;20288;-77
2023/04/22 07:15:27;;;;;;;11.68;9.45;;;;;17.20;100499.00;;;;5049484;28;20213;-75
2023/04/22 07:17:54;;;;;;;11.38;9.73;;;;;17.20;100504.00;;;;5054402;28;20286;-75
2023/04/22 07:20:22;;;;;;;11.35;9.40;;;;;17.30;100505.00;;;;5069576;28;20237;-75
2023/04/22 07:22:49;;;;;;;13.40;8.60;;;;;17.40;100501.00;;;;5068402;28;20226;-75
2023/04/22 07:25:16;;;;;;;9.27;8.27;;;;;17.50;100499.00;;;;5054772;28;20202;-75
2023/04/22 07:27:45;;;;;;;10.05;8.95;;;;;17.50;100506.00;;;;5055914;28;20209;-75
2023/04/22 07:30:13;;;;;;;10.18;8.70;;;;;17.60;100502.00;;;;5057563;28;20198;-75
2023/04/22 07:32:40;;;;;;;11.20;9.73;;;;;17.70;100481.00;;;;5054023;28;20227;-75
2023/04/22 07:35:09;;;;;;;12.43;9.63;;;;;17.80;100483.00;;;;5052923;28;20206;-75
2023/04/22 07:37:37;;;;;;;10.10;8.95;;;;;17.90;100491.00;;;;5050467;28;20204;-76
2023/04/22 07:40:10;;;;;;;8.68;7.78;;;;;18.00;100496.00;;;;5049639;28;20203;-75
2023/04/22 07:42:38;;;;;;;9.75;7.68;;;;;18.00;100501.00;;;;5058222;28;20218;-75
2023/04/22 07:45:08;;;;;;;8.95;8.02;;;;;18.10;100504.00;;;;5067820;28;20211;-75
2023/04/22 07:47:35;;;;;;;7.57;6.25;;;;;18.20;100515.00;;;;5064366;28;20228;-75
2023/04/22 07:50:02;;;;;;;7.75;6.95;;;;;18.30;100524.00;;;;5057088;28;20196;-75
2023/04/22 07:52:30;;;;;;;7.93;6.90;;;;;18.40;100527.00;;;;5052701;28;20203;-75
2023/04/22 07:54:57;;;;;;;8.20;7.07;;;;;18.50;100529.00;;;;5053212;28;20846;-76
2023/04/22 07:57:25;;;;;;;9.20;7.78;;;;;18.60;100524.00;;;;5050242;28;20195;-77
2023/04/22 07:59:52;;;;;;;8.88;7.97;;;;;18.70;100522.00;;;;5048964;28;20203;-77
2023/04/22 08:02:21;;;;;;;8.43;7.22;;;;;18.80;100522.00;;;;5064414;28;20234;-76
2023/04/22 08:04:49;;;;;;;7.45;6.72;;;;;19.00;100527.00;;;;5068084;28;20673;-78
2023/04/22 08:07:16;;;;;;;9.60;7.43;;;;;19.10;100518.00;;;;5052538;28;20207;-77
2023/04/22 08:09:43;;;;;;;10.40;7.90;;;;;19.20;100523.00;;;;5048964;28;20206;-76
2023/04/22 08:12:11;;;;;;;11.48;7.18;;;;;19.30;100501.00;;;;5048697;28;20199;-77
2023/04/22 08:14:38;;;;;;;8.27;7.45;;;;;19.40;100486.00;;;;5064290;28;20202;-77
2023/04/22 08:17:05;;;;;;;8.35;7.53;;;;;19.50;100489.00;;;;5060633;28;20201;-76
2023/04/22 08:19:34;;;;;;;7.63;6.55;;;;;19.50;100490.00;;;;5067527;28;20195;-76
2023/04/22 08:22:01;;;;;;;8.05;6.18;;;;;19.60;100476.00;;;;5068262;28;20226;-76
2023/04/22 08:24:28;;;;;;;9.73;6.95;;;;;19.70;100466.00;;;;5066794;28;20556;-76
2023/04/22 08:26:56;;;;;;;8.20;6.97;;;;;19.80;100468.00;;;;5052473;28;20191;-76
2023/04/22 08:29:23;;;;;;;8.70;6.35;;;;;19.90;100465.00;;;;5048038;28;20196;-76
2023/04/22 08:31:51;;;;;;;7.93;7.13;;;;;19.90;100473.00;;;;5061199;28;21085;-77
2023/04/22 08:34:18;;;;;;;8.30;6.72;;;;;20.00;100480.00;;;;5047454;28;20681;-77
2023/04/22 08:36:47;;;;;;;7.47;6.68;;;;;20.10;100477.00;;;;5048467;28;20227;-76
2023/04/22 08:39:14;;;;;;;7.35;5.68;;;;;20.20;100472.00;;;;5048303;28;20187;-76
2023/04/22 08:41:45;;;;;;;10.13;7.13;;;;;20.30;100472.00;;;;5047845;28;20635;-76
2023/04/22 08:44:14;;;;;;;7.30;6.57;;;;;20.40;100474.00;;;;5048134;28;20211;-77
2023/04/22 08:46:45;;;;;;;6.72;5.80;;;;;20.50;100470.00;;;;5053958;28;20202;-77
2023/04/22 08:49:14;;;;;;;7.25;6.00;;;;;20.60;100474.00;;;;5068267;28;20199;-77
2023/04/22 08:51:45;;;;;;;6.78;6.07;;;;;20.70;100465.00;;;;5053873;28;20288;-75
2023/04/22 08:54:15;;;;;;;6.88;6.05;;;;;20.70;100469.00;;;;5048206;28;20191;-75
2023/04/22 08:56:44;;;;;;;7.80;6.45;;;;;20.80;100466.00;;;;5048058;28;20200;-77
2023/04/22 08:59:12;;;;;;;6.30;5.45;;;;;20.90;100465.00;;;;5060137;28;20285;-77
2023/04/22 09:01:41;;;;;;;7.35;6.45;;;;;21.00;100463.00;;;;5060087;28;20196;-76
2023/04/22 09:04:10;;;;;;;8.18;6.88;;;;;21.10;100454.00;;;;5047585;28;20231;-76
2023/04/22 09:06:38;;;;;;;6.95;6.25;;;;;21.10;100448.00;;;;5048863;28;20199;-76
2023/04/22 09:09:07;;;;;;;8.13;6.90;;;;;21.20;100445.00;;;;5063067;28;20207;-76
2023/04/22 09:11:36;;;;;;;7.28;6.25;;;;;21.30;100443.00;;;;5049517;28;20253;-76
2023/04/22 09:14:04;;;;;;;7.72;6.97;;;;;21.40;100448.00;;;;5052755;28;20196;-77
2023/04/22 09:16:32;;;;;;;8.95;6.90;;;;;21.40;100444.00;;;;5053351;28;20203;-77
2023/04/22 09:19:00;;;;;;;6.57;5.93;;;;;21.50;100439.00;;;;5067673;28;20206;-77
2023/04/22 09:21:28;;;;;;;8.88;6.82;;;;;21.60;100440.00;;;;5070228;28;20927;-77
2023/04/22 09:23:58;;;;;;;8.73;6.45;;;;;21.70;100433.00;;;;5059597;28;20203;-77
2023/04/22 09:26:26;;;;;;;6.93;6.15;;;;;21.80;100428.00;;;;5067271;28;20218;-77
2023/04/22 09:28:57;;;;;;;7.40;6.20;;;;;21.90;100422.00;;;;5063711;28;20672;-77
2023/04/22 09:31:24;;;;;;;8.35;6.65;;;;;22.00;100417.00;;;;5052073;28;20203;-77
2023/04/22 09:33:53;;;;;;;7.78;5.88;;;;;22.10;100417.00;;;;5051457;28;20235;-77
2023/04/22 09:36:23;;;;;;;7.03;5.65;;;;;22.20;100412.00;;;;5051414;28;20195;-78
2023/04/22 09:38:54;;;;;;;7.35;6.53;;;;;22.30;100396.00;;;;5050939;28;20234;-77
2023/04/22 09:41:29;;;;;;;8.25;7.03;;;;;22.40;100394.00;;;;5054571;28;20204;-77
2023/04/22 09:43:58;;;;;;;7.72;6.07;;;;;22.50;100397.00;;;;5054847;28;20573;-77
2023/04/22 09:46:27;;;;;;;7.10;6.35;;;;;22.70;100405.00;;;;5051024;28;20199;-77
2023/04/22 09:48:57;;;;;;;7.43;6.05;;;;;22.80;100402.00;;;;5050623;28;20665;-77
2023/04/22 09:51:26;;;;;;;8.02;7.10;;;;;23.00;100395.00;;;;5050935;28;20192;-77
2023/04/22 09:54:03;;;;;;;7.40;5.70;;;;;23.00;100396.00;;;;5056325;28;20241;-77
2023/04/22 09:56:46;;;;;;;5.68;5.03;;;;;23.00;100400.00;;;;5051655;28;20225;-77
2023/04/22 09:59:19;;;;;;;6.78;5.90;;;;;23.10;100401.00;;;;5070412;28;20270;-77
2023/04/22 10:01:46;;;;;;;8.15;6.28;;;;;23.20;100395.00;;;;5070182;28;20199;-77
2023/04/22 10:04:15;;;;;;;7.20;6.15;;;;;23.30;100396.00;;;;5069402;28;20280;-77
2023/04/22 10:06:43;;;;;;;6.75;6.05;;;;;23.40;100389.00;;;;5070340;28;20739;-77
2023/04/22 10:09:11;;;;;;;6.85;6.10;;;;;23.50;100390.00;;;;5058392;28;20572;-77
2023/04/22 10:11:39;;;;;;;6.40;5.75;;;;;23.60;100398.00;;;;5070989;28;20207;-76
2023/04/22 10:14:09;;;;;;;6.65;5.72;;;;;23.60;100395.00;;;;5069126;28;20728;-77
2023/04/22 10:16:40;;;;;;;7.00;6.10;;;;;23.70;100402.00;;;;5068018;28;20249;-77
2023/04/22 10:19:10;;;;;;;7.35;6.05;;;;;23.80;100401.00;;;;5070431;28;21059;-77
2023/04/22 10:21:40;;;;;;;6.25;5.60;;;;;23.80;100398.00;;;;5070404;28;20225;-77
2023/04/22 10:24:07;;;;;;;8.18;6.50;;;;;23.90;100402.00;;;;5070695;28;20407;-77
2023/04/22 10:26:47;;;;;;;7.68;6.53;;;;;23.80;100410.00;;;;5070508;28;20199;-78
2023/04/22 10:29:16;;;;;;;5.60;5.03;;;;;24.00;100408.00;;;;5051028;28;20206;-77
2023/04/22 10:31:50;;;;;;;6.65;5.45;;;;;24.00;100408.00;;;;5050953;28;20203;-77
2023/04/22 10:34:18;;;;;;;6.88;6.18;;;;;24.10;100421.00;;;;5050429;28;20202;-77
2023/04/22 10:36:58;;;;;;;6.45;5.85;;;;;24.00;100428.00;;;;5050520;28;20196;-77
2023/04/22 10:39:26;;;;;;;8.10;6.00;;;;;24.20;100421.00;;;;5062595;28;20244;-77
2023/04/22 10:41:56;;;;;;;7.75;6.30;;;;;24.20;100429.00;;;;5064789;28;20227;-77
2023/04/22 10:44:29;;;;;;;7.05;6.30;;;;;24.20;100423.00;;;;5050337;28;20583;-77
2023/04/22 10:46:59;;;;;;;7.68;6.60;;;;;24.30;100426.00;;;;5053493;28;20195;-77
2023/04/22 10:49:30;;;;;;;7.65;6.70;;;;;24.40;100422.00;;;;5050455;28;20286;-77
2023/04/22 10:51:58;;;;;;;7.95;7.15;;;;;24.50;100428.00;;;;5050188;28;20222;-77
2023/04/22 10:54:58;;;;;;;8.63;7.05;;;;;24.50;100434.00;;;;5050383;28;20208;-77
2023/04/22 10:57:38;;;;;;;8.20;6.28;;;;;24.60;100432.00;;;;5050682;28;20188;-77
2023/04/22 11:00:25;;;;;;;6.65;5.90;;;;;24.60;100432.00;;;;5047458;28;20200;-77
2023/04/22 11:03:07;;;;;;;7.30;6.57;;;;;24.60;100440.00;;;;5050774;28;20223;-77
2023/04/22 11:05:35;;;;;;;6.50;5.82;;;;;24.60;100435.00;;;;5051399;28;20618;-78
2023/04/22 11:08:05;;;;;;;6.88;5.93;;;;;24.60;100433.00;;;;5050197;28;20681;-78
2023/04/22 11:10:43;;;;;;;7.13;6.35;;;;;24.50;100436.00;;;;5055665;28;20199;-78
2023/04/22 11:13:13;;;;;;;7.72;6.22;;;;;24.50;100432.00;;;;5069784;28;20743;-78
2023/04/22 11:15:42;;;;;;;6.25;5.60;;;;;24.50;100419.00;;;;5070454;28;20203;-77
2023/04/22 11:18:22;;;;;;;5.95;5.45;;;;;24.50;100420.00;;;;5059408;28;20204;-78
2023/04/22 11:20:51;;;;;;;5.78;5.03;;;;;24.60;100426.00;;;;5068565;28;20220;-78
2023/04/22 11:23:22;;;;;;;5.05;4.55;;;;;24.60;100420.00;;;;5063732;28;20329;-78
2023/04/22 11:25:56;;;;;;;6.22;5.22;;;;;24.50;100428.00;;;;5051042;28;20260;-77
2023/04/22 11:28:23;;;;;;;5.85;4.82;;;;;24.60;100432.00;;;;5050355;28;20206;-77
2023/04/22 11:30:51;;;;;;;6.47;5.50;;;;;24.50;100434.00;;;;5066806;28;20191;-77
2023/04/22 11:33:20;;;;;;;4.88;4.47;;;;;24.40;100427.00;;;;5068951;28;20230;-78
2023/04/22 11:35:50;;;;;;;5.20;4.63;;;;;24.30;100432.00;;;;5069027;28;20253;-77
2023/04/22 11:38:19;;;;;;;4.38;3.97;;;;;24.30;100421.00;;;;5055148;28;20206;-77
2023/04/22 11:40:46;;;;;;;6.28;4.82;;;;;24.20;100427.00;;;;5069083;28;20199;-76
2023/04/22 11:43:13;;;;;;;7.70;6.03;;;;;24.20;100446.00;;;;5066815;28;20238;-77
2023/04/22 11:45:41;;;;;;;6.07;5.20;;;;;24.10;100460.00;;;;5068599;28;20187;-77
2023/04/22 11:48:10;;;;;;;5.63;5.10;;;;;23.90;100456.00;;;;5069068;28;20199;-76
2023/04/22 11:50:42;;;;;;;6.88;5.03;;;;;23.80;100441.00;;;;5068904;28;20230;-76
2023/04/22 11:53:15;;;;;;;6.82;5.32;;;;;23.60;100453.00;;;;5060558;28;20264;-76
2023/04/22 11:55:43;;;;;;;7.97;5.75;;;;;23.60;100454.00;;;;5057785;28;20286;-76
2023/04/22 11:58:13;;;;;;;5.63;5.03;;;;;23.50;100450.00;;;;5062828;28;20200;-76
2023/04/22 12:00:42;;;;;;;5.25;4.72;;;;;23.30;100447.00;;;;5063340;28;20204;-77
2023/04/22 12:03:14;;;;;;;7.18;5.72;;;;;23.20;100446.00;;;;5048482;28;20226;-77
2023/04/22 12:05:44;;;;;;;7.40;5.55;;;;;23.10;100441.00;;;;5049090;28;20199;-77
2023/04/22 12:08:13;;;;;;;7.00;5.05;;;;;23.10;100447.00;;;;5052195;28;20672;-77
2023/04/22 12:10:45;;;;;;;6.00;5.40;;;;;23.00;100439.00;;;;5054503;28;20207;-76
2023/04/22 12:13:19;;;;;;;5.70;5.10;;;;;22.80;100443.00;;;;5049161;28;20200;-76